Terminal Aerodrome Forecast
Issued by NWS

Home | Current Version | Previous Version | Text Only | Print | Product List | Glossary On
Versions: 1 2 3 4 5 6 7 8 9 10 11 12 13 14 15 16 17
000
FTUS42 KRAH 300146 AAA
TAFRWI
TAF AMD
KRWI 300146Z 3002/3024 09008KT P6SM VCSH SCT025 BKN035
     FM300600 05004KT 5SM BR BKN015
     FM301500 05007KT P6SM OVC050 PROB30 3018/3024 4SM TSRA
      BKN025CB=

USA.gov is the U.S. government's official web portal to all federal, state and local government web resources and services.